Time;durP1;ratioP1;P1;durP2;ratioP2;P2;SDS_P1;SDS_P2;PMS_P1;PMS_P2;Temp;Humidity;BMP_temperature;BMP_pressure;BME280_temperature;BME280_humidity;BME280_pressure;Samples;Min_cycle;Max_cycle;Signal;HPM_P1;HPM_P2
2023/07/10 00:01:03;;;;;;;1999.90;999.90;;;22.30;88.40;;;;;;5092154;28;20207;-72
2023/07/10 00:03:31;;;;;;;1999.90;999.90;;;22.50;88.10;;;;;;5094313;28;20020;-72
2023/07/10 00:05:59;;;;;;;1999.90;999.90;;;22.70;87.60;;;;;;5096328;28;20119;-73
2023/07/10 00:08:27;;;;;;;1999.90;999.90;;;23.00;88.20;;;;;;5097051;28;20035;-72
2023/07/10 00:10:55;;;;;;;1999.90;999.90;;;23.10;87.70;;;;;;5084892;28;20685;-75
2023/07/10 00:13:22;;;;;;;1999.90;999.90;;;23.50;86.80;;;;;;5095734;28;20479;-74
2023/07/10 00:15:50;;;;;;;1999.90;999.90;;;24.00;84.60;;;;;;5097191;28;20035;-74
2023/07/10 00:18:20;;;;;;;1999.90;999.90;;;24.10;83.80;;;;;;5100705;28;20031;-74
2023/07/10 00:20:48;;;;;;;1999.90;999.90;;;24.00;83.10;;;;;;5100337;28;20028;-74
2023/07/10 00:23:16;;;;;;;1999.90;999.90;;;23.90;83.60;;;;;;5106031;28;20402;-75
2023/07/10 00:25:44;;;;;;;1999.90;999.90;;;24.30;83.30;;;;;;5096778;28;20088;-70
2023/07/10 00:28:20;;;;;;;1999.90;999.90;;;24.20;83.90;;;;;;5094102;28;20028;-73
2023/07/10 00:30:50;;;;;;;1999.90;999.90;;;24.50;81.80;;;;;;5093069;28;20049;-70
2023/07/10 00:33:20;;;;;;;1999.90;999.90;;;24.50;81.40;;;;;;5086970;28;20032;-71
2023/07/10 00:35:47;;;;;;;1999.90;999.90;;;24.30;81.70;;;;;;5085806;28;20069;-70
2023/07/10 00:38:27;;;;;;;1999.90;999.90;;;24.30;81.90;;;;;;5086666;28;20081;-69
2023/07/10 00:40:56;;;;;;;1999.90;999.90;;;24.30;82.10;;;;;;5089562;28;20024;-73
2023/07/10 00:43:37;;;;;;;1999.90;999.90;;;24.60;81.90;;;;;;5096849;28;20059;-71
2023/07/10 00:46:27;;;;;;;1999.90;999.90;;;25.20;80.20;;;;;;5083271;28;20100;-72
2023/07/10 00:49:06;;;;;;;1999.90;999.90;;;25.10;79.50;;;;;;5088392;28;20139;-70
2023/07/10 00:51:39;;;;;;;1999.90;999.90;;;25.10;80.20;;;;;;5077003;28;20109;-70
2023/07/10 00:54:37;;;;;;;1999.90;999.90;;;25.50;79.20;;;;;;5081700;28;20074;-70
2023/07/10 00:57:13;;;;;;;1999.90;999.90;;;26.00;77.80;;;;;;5081153;28;20028;-71
2023/07/10 00:59:41;;;;;;;1999.90;999.90;;;26.10;78.20;;;;;;5085895;28;20031;-70
2023/07/10 01:02:09;;;;;;;1999.90;999.90;;;26.20;77.60;;;;;;5078031;28;20033;-74
2023/07/10 01:04:41;;;;;;;1999.90;999.90;;;26.30;77.90;;;;;;5080403;28;20044;-71
2023/07/10 01:07:12;;;;;;;1999.90;999.90;;;26.60;76.80;;;;;;5090516;28;20028;-71
2023/07/10 01:09:43;;;;;;;1999.90;999.90;;;26.70;76.80;;;;;;5087288;28;20516;-74
2023/07/10 01:12:11;;;;;;;1999.90;999.90;;;26.80;76.60;;;;;;5090799;28;20036;-73
2023/07/10 01:14:38;;;;;;;1999.90;999.90;;;26.90;76.70;;;;;;5090164;28;20024;-70
2023/07/10 01:17:07;;;;;;;1999.90;999.90;;;27.10;75.70;;;;;;5094751;28;20016;-70
2023/07/10 01:19:36;;;;;;;1999.90;999.90;;;27.10;75.30;;;;;;5098906;28;20441;-70
2023/07/10 01:22:05;;;;;;;1999.90;999.90;;;27.00;76.00;;;;;;5104940;28;20050;-71
2023/07/10 01:24:36;;;;;;;1999.90;999.90;;;27.10;75.80;;;;;;5096034;28;20495;-72
2023/07/10 01:27:11;;;;;;;1999.90;999.90;;;27.40;74.80;;;;;;5097815;28;20516;-78
2023/07/10 01:29:57;;;;;;;1999.90;999.90;;;27.60;74.60;;;;;;5096648;28;20031;-74
2023/07/10 01:32:27;;;;;;;1999.90;999.90;;;27.80;73.90;;;;;;5095824;28;20157;-71
2023/07/10 01:34:59;;;;;;;1999.90;999.90;;;27.90;73.90;;;;;;5091978;28;20396;-69
2023/07/10 01:37:26;;;;;;;1999.90;999.90;;;28.00;74.90;;;;;;5090589;28;20455;-69
2023/07/10 01:39:54;;;;;;;1999.90;999.90;;;28.40;73.40;;;;;;5080880;28;20818;-70
2023/07/10 01:42:22;;;;;;;1999.90;999.90;;;28.50;73.80;;;;;;5081836;28;20020;-70
2023/07/10 01:44:51;;;;;;;1999.90;999.90;;;28.70;72.20;;;;;;5079372;28;20119;-69
2023/07/10 01:47:19;;;;;;;1999.90;999.90;;;28.70;71.60;;;;;;5082454;28;20700;-71
2023/07/10 01:49:55;;;;;;;1999.90;999.90;;;28.80;72.20;;;;;;5081378;28;20082;-73
2023/07/10 01:52:24;;;;;;;1999.90;999.90;;;28.70;71.70;;;;;;5080393;28;20050;-70
2023/07/10 01:54:52;;;;;;;1999.90;999.90;;;28.40;72.60;;;;;;5077366;28;20036;-70
2023/07/10 01:57:23;;;;;;;1999.90;999.90;;;27.90;71.40;;;;;;5082173;28;20071;-71
2023/07/10 01:59:52;;;;;;;1999.90;999.90;;;27.10;72.20;;;;;;5079486;28;20074;-71
2023/07/10 02:02:19;;;;;;;1999.90;999.90;;;26.90;73.10;;;;;;5084159;28;20097;-75
2023/07/10 02:04:49;;;;;;;1999.90;999.90;;;27.10;73.80;;;;;;5082229;28;20048;-70
2023/07/10 02:07:16;;;;;;;1999.90;999.90;;;27.40;74.10;;;;;;5082434;28;20028;-71
2023/07/10 02:09:43;;;;;;;1999.90;999.90;;;27.80;74.00;;;;;;5088425;28;20047;-70
2023/07/10 02:12:11;;;;;;;1999.90;999.90;;;28.10;73.20;;;;;;5100079;28;20032;-71
2023/07/10 02:14:38;;;;;;;1999.90;999.90;;;28.40;72.10;;;;;;5103113;28;20023;-72
2023/07/10 02:17:06;;;;;;;1999.90;999.90;;;28.10;71.70;;;;;;5093061;28;20019;-70
2023/07/10 02:19:34;;;;;;;1999.90;999.90;;;27.80;72.40;;;;;;5091833;28;20378;-73
2023/07/10 02:22:02;;;;;;;1999.90;999.90;;;27.50;73.20;;;;;;5088536;28;20077;-74
2023/07/10 02:24:29;;;;;;;1999.90;999.90;;;27.40;73.70;;;;;;5101497;28;20031;-73
2023/07/10 02:26:56;;;;;;;1999.90;999.90;;;27.70;74.10;;;;;;5098770;28;20398;-74
2023/07/10 02:29:23;;;;;;;1999.90;999.90;;;27.90;72.60;;;;;;5091532;28;20099;-74
2023/07/10 02:31:51;;;;;;;1999.90;999.90;;;28.00;72.20;;;;;;5088611;28;20047;-72
2023/07/10 02:34:19;;;;;;;1999.90;999.90;;;28.00;72.10;;;;;;5087915;28;20085;-69
2023/07/10 02:36:46;;;;;;;1999.90;999.90;;;27.90;71.80;;;;;;5075080;28;20059;-71
2023/07/10 02:39:13;;;;;;;1999.90;999.90;;;26.80;72.00;;;;;;5085948;28;20028;-72
2023/07/10 02:41:41;;;;;;;1999.90;999.90;;;26.70;75.00;;;;;;5078624;28;20024;-72
2023/07/10 02:44:08;;;;;;;1999.90;999.90;;;26.10;73.70;;;;;;5081943;28;20035;-72
2023/07/10 02:46:35;;;;;;;1999.90;999.90;;;26.10;73.50;;;;;;5090254;28;20030;-72
2023/07/10 02:49:03;;;;;;;1999.90;999.90;;;25.80;73.60;;;;;;5094972;28;20125;-72
2023/07/10 02:51:30;;;;;;;1999.90;999.90;;;25.30;74.60;;;;;;5093064;28;20027;-71
2023/07/10 02:53:57;;;;;;;1999.90;999.90;;;24.90;74.70;;;;;;5094140;28;20500;-70
2023/07/10 02:56:24;;;;;;;1999.90;999.90;;;24.80;75.00;;;;;;5093727;28;20015;-70
2023/07/10 02:58:52;;;;;;;1999.90;999.90;;;24.40;75.80;;;;;;5095136;28;20036;-70
2023/07/10 03:01:26;;;;;;;1999.90;999.90;;;24.30;75.70;;;;;;5092470;28;20031;-75
2023/07/10 03:03:53;;;;;;;1999.90;999.90;;;24.30;75.30;;;;;;5094997;28;20048;-71
2023/07/10 03:06:23;;;;;;;1999.90;999.90;;;24.40;75.70;;;;;;5096464;28;20024;-73
2023/07/10 03:08:50;;;;;;;1999.90;999.90;;;24.50;75.70;;;;;;5105364;28;20074;-74
2023/07/10 03:11:18;;;;;;;1999.90;999.90;;;24.30;75.50;;;;;;5088282;28;20043;-71
2023/07/10 03:13:45;;;;;;;1999.90;999.90;;;23.60;76.00;;;;;;5094075;28;20024;-72
2023/07/10 03:16:15;;;;;;;1999.90;999.90;;;23.50;76.50;;;;;;5091264;28;20016;-72
2023/07/10 03:18:42;;;;;;;1999.90;999.90;;;23.20;76.70;;;;;;5097493;28;20027;-71
2023/07/10 03:21:10;;;;;;;1999.90;999.90;;;23.20;77.30;;;;;;5093075;28;20020;-72
2023/07/10 03:23:37;;;;;;;1999.90;999.90;;;23.30;77.40;;;;;;5095981;28;20032;-72
2023/07/10 03:26:05;;;;;;;1999.90;999.90;;;23.20;76.90;;;;;;5094612;28;20420;-72
2023/07/10 03:28:37;;;;;;;1999.90;999.90;;;23.10;77.10;;;;;;5091862;28;20036;-72
2023/07/10 03:31:05;;;;;;;1999.90;999.90;;;22.80;77.60;;;;;;5082502;28;20024;-71
2023/07/10 03:33:32;;;;;;;1999.90;999.90;;;22.60;78.60;;;;;;5102362;28;20120;-69
2023/07/10 03:36:07;;;;;;;1999.90;999.90;;;22.30;78.50;;;;;;5093937;28;20026;-71
2023/07/10 03:38:35;;;;;;;1999.90;999.90;;;21.90;79.10;;;;;;5094573;28;20115;-71
2023/07/10 03:41:04;;;;;;;1999.90;999.90;;;21.70;80.40;;;;;;5086906;28;20035;-69
2023/07/10 03:43:31;;;;;;;1999.90;999.90;;;21.60;80.30;;;;;;5082778;28;20102;-70
2023/07/10 03:45:59;;;;;;;1999.90;999.90;;;21.40;80.90;;;;;;5078437;28;20089;-70
2023/07/10 03:48:26;;;;;;;1999.90;999.90;;;21.10;80.30;;;;;;5082759;28;20490;-70
2023/07/10 03:50:53;;;;;;;1999.90;999.90;;;20.80;80.80;;;;;;5080500;28;20106;-71
2023/07/10 03:53:21;;;;;;;1999.90;999.90;;;20.70;81.80;;;;;;5087847;28;20490;-70
2023/07/10 03:55:52;;;;;;;1999.90;999.90;;;20.50;82.30;;;;;;5075862;28;20817;-71
2023/07/10 03:58:27;;;;;;;1999.90;999.90;;;20.50;82.30;;;;;;5088966;28;20060;-71
2023/07/10 04:00:57;;;;;;;1999.90;999.90;;;20.30;82.20;;;;;;5093449;28;20030;-73
2023/07/10 04:03:27;;;;;;;1999.90;999.90;;;20.00;82.40;;;;;;5089231;28;20089;-72
2023/07/10 04:05:58;;;;;;;1999.90;999.90;;;19.70;83.10;;;;;;5091770;28;20492;-73
2023/07/10 04:08:36;;;;;;;1999.90;999.90;;;19.60;83.50;;;;;;5090719;28;20502;-72
2023/07/10 04:11:06;;;;;;;1999.90;999.90;;;19.60;84.00;;;;;;5087377;28;20028;-69
2023/07/10 04:13:34;;;;;;;1999.90;999.90;;;19.50;83.10;;;;;;5093057;28;20474;-72
2023/07/10 04:16:07;;;;;;;1999.90;999.90;;;19.60;83.60;;;;;;5090105;28;20494;-74
2023/07/10 04:18:36;;;;;;;1999.90;999.90;;;19.60;84.00;;;;;;5091026;28;20059;-74
2023/07/10 04:21:10;;;;;;;1999.90;999.90;;;19.60;84.20;;;;;;5094234;28;20032;-71
2023/07/10 04:23:38;;;;;;;1999.90;999.90;;;19.60;84.10;;;;;;5083419;28;21507;-72
2023/07/10 04:26:06;;;;;;;1999.90;999.90;;;19.50;84.50;;;;;;5088335;28;20400;-71
2023/07/10 04:28:33;;;;;;;1999.90;999.90;;;19.40;84.50;;;;;;5094422;28;20696;-75
2023/07/10 04:31:00;;;;;;;1999.90;999.90;;;19.30;84.60;;;;;;5087847;28;20059;-71
2023/07/10 04:33:27;;;;;;;1999.90;999.90;;;19.20;84.50;;;;;;5090136;28;20023;-72
2023/07/10 04:35:57;;;;;;;1999.90;999.90;;;19.10;84.80;;;;;;5082129;28;20475;-71
2023/07/10 04:38:29;;;;;;;1999.90;999.90;;;19.00;85.00;;;;;;5090345;28;20119;-72
2023/07/10 04:40:58;;;;;;;1999.90;999.90;;;18.90;85.40;;;;;;5093082;28;20625;-70
2023/07/10 04:43:27;;;;;;;1999.90;999.90;;;18.80;86.00;;;;;;5089941;28;20047;-70
2023/07/10 04:45:55;;;;;;;1999.90;999.90;;;18.80;86.20;;;;;;5093569;28;20020;-70
2023/07/10 04:48:24;;;;;;;1999.90;999.90;;;18.90;86.60;;;;;;5091396;28;20032;-69
2023/07/10 04:50:53;;;;;;;1999.90;999.90;;;18.90;86.20;;;;;;5096719;28;20031;-72
2023/07/10 04:53:22;;;;;;;1999.90;999.90;;;18.90;86.60;;;;;;5103636;28;20080;-70
2023/07/10 04:55:51;;;;;;;1999.90;999.90;;;19.00;87.00;;;;;;5097877;28;20032;-71
2023/07/10 04:58:19;;;;;;;1999.90;999.90;;;19.00;86.80;;;;;;5097148;28;20031;-71
2023/07/10 05:00:58;;;;;;;1999.90;999.90;;;18.90;86.30;;;;;;5092863;28;20020;-70
2023/07/10 05:03:26;;;;;;;1999.90;999.90;;;18.90;86.30;;;;;;5095307;28;20089;-71
2023/07/10 05:05:58;;;;;;;1999.90;999.90;;;18.90;86.40;;;;;;5086545;28;20058;-74
2023/07/10 05:08:27;;;;;;;1999.90;999.90;;;18.90;87.00;;;;;;5092510;28;20041;-73
2023/07/10 05:10:56;;;;;;;1999.90;999.90;;;18.80;87.00;;;;;;5090738;28;20027;-73
2023/07/10 05:13:26;;;;;;;1999.90;999.90;;;18.80;86.40;;;;;;5096822;28;20030;-72
2023/07/10 05:15:56;;;;;;;1999.90;999.90;;;18.80;87.30;;;;;;5096481;28;20466;-74
2023/07/10 05:18:25;;;;;;;1999.90;999.90;;;18.80;86.10;;;;;;5091415;28;20054;-73
2023/07/10 05:20:52;;;;;;;1999.90;999.90;;;18.80;86.40;;;;;;5091614;28;20114;-73
2023/07/10 05:23:20;;;;;;;1999.90;999.90;;;18.80;86.70;;;;;;5090475;28;20038;-73
2023/07/10 05:26:06;;;;;;;1999.90;999.90;;;18.80;86.60;;;;;;5096569;28;20035;-73
2023/07/10 05:28:34;;;;;;;;;;;18.80;86.70;;;;;;5090858;28;20028;-75
2023/07/10 05:31:03;;;;;;;1999.90;999.90;;;18.90;86.80;;;;;;5100409;28;19950;-74
2023/07/10 05:33:31;;;;;;;1999.90;999.90;;;18.90;86.60;;;;;;5100294;28;20020;-75
2023/07/10 05:36:01;;;;;;;1999.90;999.90;;;18.80;86.80;;;;;;5091366;28;20031;-71
2023/07/10 05:38:32;;;;;;;1999.90;999.90;;;18.70;86.80;;;;;;5096088;28;20028;-72
2023/07/10 05:40:59;;;;;;;1999.90;999.90;;;18.70;87.50;;;;;;5087937;28;20024;-71
2023/07/10 05:43:29;;;;;;;1999.90;999.90;;;18.50;88.00;;;;;;5093946;28;20379;-74
2023/07/10 05:45:58;;;;;;;1999.90;999.90;;;18.50;87.80;;;;;;5094177;28;20040;-74
2023/07/10 05:48:25;;;;;;;1999.90;999.90;;;18.40;87.10;;;;;;5097048;28;20371;-74
2023/07/10 05:50:53;;;;;;;1999.90;999.90;;;18.40;87.40;;;;;;5094757;28;20034;-73
2023/07/10 05:53:21;;;;;;;1999.90;999.90;;;18.30;87.80;;;;;;5087901;28;20020;-74
2023/07/10 05:55:50;;;;;;;1999.90;999.90;;;18.30;88.00;;;;;;5088726;28;20592;-75
2023/07/10 05:58:19;;;;;;;1999.90;999.90;;;18.30;88.30;;;;;;5085126;28;20050;-74
2023/07/10 06:00:49;;;;;;;1999.90;999.90;;;18.50;87.50;;;;;;5087100;28;20032;-73
2023/07/10 06:03:17;;;;;;;1999.90;999.90;;;18.60;87.10;;;;;;5096424;28;20046;-74
2023/07/10 06:05:57;;;;;;;1999.90;999.90;;;18.60;87.00;;;;;;5086588;28;20138;-74
2023/07/10 06:08:26;;;;;;;1999.90;999.90;;;18.50;87.00;;;;;;5088690;28;20031;-74
2023/07/10 06:10:53;;;;;;;1999.90;999.90;;;18.50;88.10;;;;;;5087197;28;20049;-75
2023/07/10 06:13:21;;;;;;;1999.90;999.90;;;18.50;89.20;;;;;;5094721;28;20414;-73
2023/07/10 06:15:52;;;;;;;1999.90;999.90;;;18.50;89.20;;;;;;5086847;28;20034;-73
2023/07/10 06:18:20;;;;;;;1999.90;999.90;;;18.50;90.00;;;;;;5086639;28;20137;-75
2023/07/10 06:20:52;;;;;;;1999.90;999.90;;;18.50;90.10;;;;;;5086353;28;20024;-74
2023/07/10 06:23:20;;;;;;;1999.90;999.90;;;18.50;90.30;;;;;;5092093;28;20024;-73
2023/07/10 06:25:48;;;;;;;1999.90;999.90;;;18.50;90.40;;;;;;5084919;28;20170;-74
2023/07/10 06:28:15;;;;;;;1999.90;999.90;;;18.50;90.40;;;;;;5100810;28;20055;-73
2023/07/10 06:30:54;;;;;;;1999.90;999.90;;;18.60;90.70;;;;;;5092809;28;20028;-75
2023/07/10 06:33:22;;;;;;;1999.90;999.90;;;18.60;90.40;;;;;;5097829;28;20024;-74
2023/07/10 06:35:49;;;;;;;1999.90;999.90;;;18.50;90.30;;;;;;5087992;28;20034;-72
2023/07/10 06:38:17;;;;;;;1999.90;999.90;;;18.40;90.30;;;;;;5095206;28;20039;-71
2023/07/10 06:40:44;;;;;;;1999.90;999.90;;;18.30;90.40;;;;;;5085840;28;20023;-72
2023/07/10 06:43:12;;;;;;;1999.90;999.90;;;18.20;90.10;;;;;;5087378;28;20028;-71
2023/07/10 06:45:40;;;;;;;1999.90;999.90;;;18.00;90.30;;;;;;5086888;28;20031;-74
2023/07/10 06:48:07;;;;;;;1999.90;999.90;;;17.70;90.60;;;;;;5077545;28;20024;-74
2023/07/10 06:50:35;;;;;;;1999.90;999.90;;;17.50;90.80;;;;;;5088308;28;20032;-72
2023/07/10 06:53:02;;;;;;;1999.90;999.90;;;17.40;91.00;;;;;;5095607;28;20031;-72
2023/07/10 06:55:30;;;;;;;1999.90;999.90;;;17.20;91.10;;;;;;5096162;28;20020;-71
2023/07/10 06:57:58;;;;;;;1999.90;999.90;;;17.10;91.40;;;;;;5085330;28;20033;-72
2023/07/10 07:00:25;;;;;;;1999.90;999.90;;;16.90;91.70;;;;;;5087113;28;20032;-73
2023/07/10 07:02:53;;;;;;;1999.90;999.90;;;16.80;91.60;;;;;;5091509;28;20482;-73
2023/07/10 07:05:20;;;;;;;1999.90;999.90;;;16.60;91.80;;;;;;5093700;28;20067;-75
2023/07/10 07:07:47;;;;;;;1999.90;999.90;;;16.50;92.10;;;;;;5098145;28;20031;-73
2023/07/10 07:10:15;;;;;;;1999.90;999.90;;;16.30;92.20;;;;;;5096618;28;20055;-70
2023/07/10 07:12:44;;;;;;;1999.90;999.90;;;16.20;92.30;;;;;;5091523;28;20050;-73
2023/07/10 07:15:12;;;;;;;1999.90;999.90;;;16.10;92.60;;;;;;5087562;28;20115;-74
2023/07/10 07:17:40;;;;;;;1999.90;999.90;;;15.90;92.80;;;;;;5094297;28;20017;-73
2023/07/10 07:20:08;;;;;;;1999.90;999.90;;;15.80;92.80;;;;;;5095460;28;20069;-72
2023/07/10 07:22:35;;;;;;;1999.90;999.90;;;15.70;92.90;;;;;;5100753;28;20027;-71
2023/07/10 07:25:03;;;;;;;1999.90;999.90;;;15.60;93.00;;;;;;5086676;28;20035;-72
2023/07/10 07:27:32;;;;;;;1999.90;999.90;;;15.50;93.20;;;;;;5090936;28;20028;-74
2023/07/10 07:30:03;;;;;;;1999.90;999.90;;;15.50;93.30;;;;;;5084897;28;20036;-73
2023/07/10 07:32:30;;;;;;;1999.90;999.90;;;15.40;93.40;;;;;;5085931;28;20028;-75
2023/07/10 07:34:57;;;;;;;1999.90;999.90;;;15.30;93.60;;;;;;5093178;28;20028;-73
2023/07/10 07:37:25;;;;;;;1999.90;999.90;;;15.20;93.60;;;;;;5092977;28;20028;-76
2023/07/10 07:39:54;;;;;;;1999.90;999.90;;;15.10;93.80;;;;;;5094348;28;20133;-74
2023/07/10 07:42:22;;;;;;;1999.90;999.90;;;15.00;93.90;;;;;;5091841;28;20376;-74
2023/07/10 07:44:49;;;;;;;1999.90;999.90;;;14.90;94.00;;;;;;5088721;28;20028;-73
2023/07/10 07:47:17;;;;;;;1999.90;999.90;;;14.80;94.20;;;;;;5084371;28;20044;-76
2023/07/10 07:49:44;;;;;;;1999.90;999.90;;;14.80;94.20;;;;;;5091558;28;20086;-71
2023/07/10 07:52:12;;;;;;;1999.90;999.90;;;14.70;94.40;;;;;;5094489;28;20024;-74
2023/07/10 07:54:39;;;;;;;1999.90;999.90;;;14.70;94.40;;;;;;5087625;28;20030;-70
2023/07/10 07:57:07;;;;;;;1999.90;999.90;;;14.60;94.50;;;;;;5089472;28;20415;-72
2023/07/10 07:59:34;;;;;;;1999.90;999.90;;;14.50;94.60;;;;;;5098148;28;20078;-74
2023/07/10 08:02:01;;;;;;;1999.90;999.90;;;14.50;94.70;;;;;;5091730;28;20017;-73
2023/07/10 08:04:29;;;;;;;1999.90;999.90;;;14.40;94.90;;;;;;5088599;28;20051;-71
2023/07/10 08:06:57;;;;;;;1999.90;999.90;;;14.30;95.00;;;;;;5094010;28;20570;-71
2023/07/10 08:09:25;;;;;;;1999.90;999.90;;;14.20;95.10;;;;;;5088925;28;20047;-69
2023/07/10 08:11:52;;;;;;;1999.90;999.90;;;14.20;95.10;;;;;;5095510;28;20023;-73
2023/07/10 08:14:19;;;;;;;1999.90;999.90;;;14.10;95.10;;;;;;5093969;28;20035;-72
2023/07/10 08:16:47;;;;;;;1999.90;999.90;;;14.00;95.30;;;;;;5096645;28;20035;-72
2023/07/10 08:19:14;;;;;;;1999.90;999.90;;;14.00;95.50;;;;;;5095824;28;20482;-74
2023/07/10 08:21:41;;;;;;;1999.90;999.90;;;13.90;95.60;;;;;;5095055;28;20474;-74
2023/07/10 08:24:08;;;;;;;1999.90;999.90;;;13.80;95.70;;;;;;5093435;28;20162;-73
2023/07/10 08:26:36;;;;;;;1999.90;999.90;;;13.70;95.80;;;;;;5083649;28;20016;-72
2023/07/10 08:29:24;;;;;;;1999.90;999.90;;;13.70;96.00;;;;;;5090180;28;20040;-74
2023/07/10 08:31:54;;;;;;;1999.90;999.90;;;13.60;96.20;;;;;;5089710;28;20024;-74
2023/07/10 08:34:23;;;;;;;1999.90;999.90;;;13.50;96.40;;;;;;5095068;28;20032;-72
2023/07/10 08:36:53;;;;;;;1999.90;999.90;;;13.40;96.60;;;;;;5096907;28;20593;-73
2023/07/10 08:39:23;;;;;;;1999.90;999.90;;;13.30;96.90;;;;;;5092339;28;20494;-73
2023/07/10 08:42:01;;;;;;;1999.90;999.90;;;13.20;97.10;;;;;;5093070;28;20130;-72
2023/07/10 08:44:37;;;;;;;1999.90;999.90;;;13.10;97.40;;;;;;5093504;28;20395;-74
2023/07/10 08:47:22;;;;;;;1999.90;999.90;;;13.00;97.80;;;;;;5089374;28;20043;-75
2023/07/10 08:50:34;;;;;;;1999.90;999.90;;;13.00;98.00;;;;;;5090527;28;20048;-74
2023/07/10 08:53:18;;;;;;;1999.90;999.90;;;12.80;98.20;;;;;;5084916;28;20032;-74
2023/07/10 08:56:30;;;;;;;1999.90;999.90;;;12.70;98.40;;;;;;5094087;28;20032;-75
2023/07/10 08:59:16;;;;;;;1999.90;999.90;;;12.60;98.80;;;;;;5027316;28;20882;-74
2023/07/10 09:01:46;;;;;;;1999.90;999.90;;;12.60;99.10;;;;;;5027074;28;20231;-73
2023/07/10 09:04:18;;;;;;;1999.90;999.90;;;12.50;99.30;;;;;;5061733;28;20071;-74
2023/07/10 09:06:52;;;;;;;1999.90;999.90;;;12.40;99.60;;;;;;5089261;28;20402;-72
2023/07/10 09:09:41;;;;;;;1999.90;999.90;;;12.30;99.70;;;;;;5087508;28;20406;-72
2023/07/10 09:12:24;;;;;;;1999.90;999.90;;;12.20;99.90;;;;;;5093168;28;20078;-73
2023/07/10 09:15:03;;;;;;;1999.90;999.90;;;12.10;99.90;;;;;;5089270;28;20550;-74
2023/07/10 09:17:41;;;;;;;1999.90;999.90;;;12.00;99.90;;;;;;5088681;28;20028;-73
2023/07/10 09:20:10;;;;;;;1999.90;999.90;;;11.90;99.90;;;;;;5085364;28;20482;-74
2023/07/10 09:22:44;;;;;;;1999.90;999.90;;;11.80;99.90;;;;;;5102209;28;20034;-75
2023/07/10 09:25:13;;;;;;;1999.90;999.90;;;11.70;99.90;;;;;;5093775;28;20080;-73
2023/07/10 09:27:47;;;;;;;1999.90;999.90;;;11.60;99.90;;;;;;5089851;28;20028;-75
2023/07/10 09:30:45;;;;;;;1999.90;999.90;;;11.60;99.90;;;;;;5101503;28;20115;-74
2023/07/10 09:33:12;;;;;;;1999.90;999.90;;;11.50;99.90;;;;;;5098933;28;20035;-74
2023/07/10 09:35:43;;;;;;;1999.90;999.90;;;11.50;99.90;;;;;;5094780;28;20390;-76
2023/07/10 09:38:18;;;;;;;1999.90;999.90;;;11.40;99.90;;;;;;5096154;28;20020;-74
2023/07/10 09:40:51;;;;;;;1999.90;999.90;;;11.50;99.90;;;;;;5094817;28;20497;-75
2023/07/10 09:43:22;;;;;;;1999.90;999.90;;;11.50;99.90;;;;;;5094364;28;20276;-73
2023/07/10 09:45:52;;;;;;;1999.90;999.90;;;11.40;99.90;;;;;;5092243;28;20041;-73
2023/07/10 09:48:30;;;;;;;1999.90;999.90;;;11.40;99.90;;;;;;5091874;28;20386;-73
2023/07/10 09:51:01;;;;;;;1999.90;999.90;;;11.30;99.90;;;;;;5092176;28;20035;-73
2023/07/10 09:53:37;;;;;;;1999.90;999.90;;;11.30;99.90;;;;;;5092495;28;20038;-73
2023/07/10 09:56:05;;;;;;;1999.90;999.90;;;11.20;99.90;;;;;;5089386;28;20027;-76
2023/07/10 09:58:32;;;;;;;1999.90;999.90;;;11.20;99.90;;;;;;5093410;28;20035;-74
2023/07/10 10:01:05;;;;;;;1999.90;999.90;;;11.10;99.90;;;;;;5096343;28;20028;-76
2023/07/10 10:03:41;;;;;;;1999.90;999.90;;;11.00;99.90;;;;;;5097722;28;20047;-73
2023/07/10 10:06:25;;;;;;;1999.90;999.90;;;11.00;99.90;;;;;;5094311;28;20047;-74
2023/07/10 10:08:53;;;;;;;1999.90;999.90;;;10.90;99.90;;;;;;5088509;28;20166;-73
2023/07/10 10:11:40;;;;;;;1999.90;999.90;;;10.80;99.90;;;;;;5090407;28;20046;-75
2023/07/10 10:14:16;;;;;;;1999.90;999.90;;;10.70;99.90;;;;;;5100429;28;20028;-75
2023/07/10 10:16:54;;;;;;;1999.90;999.90;;;10.60;99.90;;;;;;5087929;28;22203;-72
2023/07/10 10:19:32;;;;;;;1999.90;999.90;;;10.50;99.90;;;;;;5095783;28;20323;-73
2023/07/10 10:21:59;;;;;;;1999.90;999.90;;;10.50;99.90;;;;;;5107557;27;20028;-75
2023/07/10 10:24:32;;;;;;;1999.90;999.90;;;10.40;99.90;;;;;;5092193;28;20033;-74
2023/07/10 10:27:21;;;;;;;1999.90;999.90;;;10.40;99.90;;;;;;5096015;28;20066;-73
2023/07/10 10:29:51;;;;;;;1999.90;999.90;;;10.30;99.90;;;;;;5086996;28;20038;-74
2023/07/10 10:32:28;;;;;;;1999.90;999.90;;;10.30;99.90;;;;;;5091499;28;20028;-76
2023/07/10 10:35:23;;;;;;;1999.90;999.90;;;10.20;99.90;;;;;;5092609;28;20227;-73
2023/07/10 10:38:09;;;;;;;1999.90;999.90;;;10.20;99.90;;;;;;5089510;28;20093;-74
2023/07/10 10:40:45;;;;;;;1999.90;999.90;;;10.10;99.90;;;;;;5098021;28;20027;-72
2023/07/10 10:43:18;;;;;;;1999.90;999.90;;;10.10;99.90;;;;;;5101056;28;20088;-75
2023/07/10 10:45:55;;;;;;;1999.90;999.90;;;10.00;99.90;;;;;;5098907;28;20155;-74
2023/07/10 10:49:02;;;;;;;1999.90;999.90;;;9.90;99.90;;;;;;5092679;28;20447;-75
2023/07/10 10:51:35;;;;;;;1999.90;999.90;;;9.90;99.90;;;;;;5083470;28;20127;-74
2023/07/10 10:54:05;;;;;;;1999.90;999.90;;;9.90;99.90;;;;;;5092682;28;20016;-72
2023/07/10 10:56:39;;;;;;;1999.90;999.90;;;9.90;99.90;;;;;;5097498;28;20505;-71
2023/07/10 10:59:24;;;;;;;1999.90;999.90;;;9.80;99.90;;;;;;5091030;28;20031;-71
2023/07/10 11:02:09;;;;;;;1999.90;999.90;;;9.80;99.90;;;;;;5086571;28;20767;-72
2023/07/10 11:04:41;;;;;;;1999.90;999.90;;;9.80;99.90;;;;;;5086264;28;20040;-73
2023/07/10 11:07:18;;;;;;;1999.90;999.90;;;9.80;99.90;;;;;;5097945;28;20023;-73
2023/07/10 11:09:52;;;;;;;1999.90;999.90;;;9.70;99.90;;;;;;5097988;28;20040;-72
2023/07/10 11:12:27;;;;;;;1999.90;999.90;;;9.70;99.90;;;;;;5101979;28;20019;-73
2023/07/10 11:14:58;;;;;;;1999.90;999.90;;;9.60;99.90;;;;;;5091016;28;20114;-72
2023/07/10 11:17:26;;;;;;;1999.90;999.90;;;9.50;99.90;;;;;;5089723;28;20368;-74
2023/07/10 11:19:54;;;;;;;1999.90;999.90;;;9.50;99.90;;;;;;5090641;28;20084;-72
2023/07/10 11:22:34;;;;;;;1999.90;999.90;;;9.50;99.90;;;;;;5093197;28;20422;-72
2023/07/10 11:25:02;;;;;;;1999.90;999.90;;;9.40;99.90;;;;;;5094384;28;20033;-73
2023/07/10 11:27:36;;;;;;;1999.90;999.90;;;9.40;99.90;;;;;;5099232;28;20024;-74
2023/07/10 11:30:15;;;;;;;1999.90;999.90;;;9.30;99.90;;;;;;5092939;28;20048;-73
2023/07/10 11:32:59;;;;;;;1999.90;999.90;;;9.30;99.90;;;;;;5088187;28;20036;-72
2023/07/10 11:35:27;;;;;;;1999.90;999.90;;;9.30;99.90;;;;;;5090760;28;20077;-72
2023/07/10 11:38:04;;;;;;;1999.90;999.90;;;9.30;99.90;;;;;;5092059;28;20047;-71
2023/07/10 11:40:31;;;;;;;1999.90;999.90;;;9.20;99.90;;;;;;5098310;28;20378;-70
2023/07/10 11:43:25;;;;;;;1999.90;999.90;;;9.20;99.90;;;;;;5094062;28;20026;-72
2023/07/10 11:46:03;;;;;;;1999.90;999.90;;;9.10;99.90;;;;;;5089629;28;20020;-71
2023/07/10 11:48:41;;;;;;;1999.90;999.90;;;9.10;99.90;;;;;;5096106;28;20093;-71
2023/07/10 11:51:33;;;;;;;1999.90;999.90;;;9.00;99.90;;;;;;5097446;28;20032;-73
2023/07/10 11:54:06;;;;;;;1999.90;999.90;;;8.90;99.90;;;;;;5096833;28;20052;-72
2023/07/10 11:56:34;;;;;;;1999.90;999.90;;;8.80;99.90;;;;;;5100381;27;20459;-75
2023/07/10 11:59:21;;;;;;;1999.90;999.90;;;8.80;99.90;;;;;;5095974;28;21237;-74
2023/07/10 12:01:49;;;;;;;1999.90;999.90;;;8.80;99.90;;;;;;5092727;28;20016;-74
2023/07/10 12:04:18;;;;;;;1999.90;999.90;;;8.80;99.90;;;;;;5092084;28;20478;-73
2023/07/10 12:06:46;;;;;;;1999.90;999.90;;;8.70;99.90;;;;;;5091155;28;20016;-72
2023/07/10 12:09:13;;;;;;;1999.90;999.90;;;8.70;99.90;;;;;;5095304;28;20038;-73
2023/07/10 12:11:41;;;;;;;1999.90;999.90;;;8.70;99.90;;;;;;5088258;28;20024;-73
2023/07/10 12:14:16;;;;;;;1999.90;999.90;;;8.70;99.90;;;;;;5093304;28;20032;-74
2023/07/10 12:16:59;;;;;;;1999.90;999.90;;;8.70;99.90;;;;;;5095815;28;20028;-74
2023/07/10 12:19:31;;;;;;;1999.90;999.90;;;8.60;99.90;;;;;;5093110;28;20057;-73
2023/07/10 12:22:24;;;;;;;1999.90;999.90;;;8.60;99.90;;;;;;5087140;28;20028;-73